sensor_id;sensor_type;location;lat;lon;timestamp;P1;durP1;ratioP1;P2;durP2;ratioP2
44452;SDS011;30155;52.164;21.236;2023-02-13T00:03:58;21.40;;;12.60;;
44452;SDS011;30155;52.164;21.236;2023-02-13T00:08:52;31.60;;;15.10;;
44452;SDS011;30155;52.164;21.236;2023-02-13T00:13:45;23.60;;;12.70;;
44452;SDS011;30155;52.164;21.236;2023-02-13T00:18:38;18.40;;;13.10;;
44452;SDS011;30155;52.164;21.236;2023-02-13T00:23:31;25.90;;;14.00;;
44452;SDS011;30155;52.164;21.236;2023-02-13T00:28:26;21.30;;;13.40;;
44452;SDS011;30155;52.164;21.236;2023-02-13T00:33:19;24.00;;;13.90;;
44452;SDS011;30155;52.164;21.236;2023-02-13T00:38:12;22.70;;;13.70;;
44452;SDS011;30155;52.164;21.236;2023-02-13T00:43:05;24.50;;;13.60;;
44452;SDS011;30155;52.164;21.236;2023-02-13T00:47:59;23.50;;;14.20;;
44452;SDS011;30155;52.164;21.236;2023-02-13T00:52:52;23.00;;;14.10;;
44452;SDS011;30155;52.164;21.236;2023-02-13T00:57:45;19.80;;;13.90;;
44452;SDS011;30155;52.164;21.236;2023-02-13T01:02:38;23.20;;;14.40;;
44452;SDS011;30155;52.164;21.236;2023-02-13T01:07:30;23.10;;;13.30;;
44452;SDS011;30155;52.164;21.236;2023-02-13T01:12:23;25.20;;;14.70;;
44452;SDS011;30155;52.164;21.236;2023-02-13T01:17:16;21.30;;;13.40;;
44452;SDS011;30155;52.164;21.236;2023-02-13T01:22:09;22.70;;;14.90;;
44452;SDS011;30155;52.164;21.236;2023-02-13T01:27:03;20.70;;;13.60;;
44452;SDS011;30155;52.164;21.236;2023-02-13T01:31:56;26.40;;;14.00;;
44452;SDS011;30155;52.164;21.236;2023-02-13T01:36:51;22.70;;;13.40;;
44452;SDS011;30155;52.164;21.236;2023-02-13T01:41:46;23.70;;;15.80;;
44452;SDS011;30155;52.164;21.236;2023-02-13T01:46:40;24.90;;;14.80;;
44452;SDS011;30155;52.164;21.236;2023-02-13T01:51:35;25.70;;;13.40;;
44452;SDS011;30155;52.164;21.236;2023-02-13T01:56:35;20.00;;;12.30;;
44452;SDS011;30155;52.164;21.236;2023-02-13T02:01:31;20.40;;;14.40;;
44452;SDS011;30155;52.164;21.236;2023-02-13T02:12:07;23.70;;;16.70;;
44452;SDS011;30155;52.164;21.236;2023-02-13T02:17:29;20.40;;;12.20;;
44452;SDS011;30155;52.164;21.236;2023-02-13T02:32:46;20.90;;;13.40;;
44452;SDS011;30155;52.164;21.236;2023-02-13T02:48:48;21.00;;;13.20;;
44452;SDS011;30155;52.164;21.236;2023-02-13T02:54:10;20.80;;;12.30;;
44452;SDS011;30155;52.164;21.236;2023-02-13T02:59:28;22.70;;;14.30;;
44452;SDS011;30155;52.164;21.236;2023-02-13T03:04:43;26.00;;;13.90;;
44452;SDS011;30155;52.164;21.236;2023-02-13T03:10:01;23.90;;;13.70;;
44452;SDS011;30155;52.164;21.236;2023-02-13T03:20:13;19.00;;;12.70;;
44452;SDS011;30155;52.164;21.236;2023-02-13T03:25:56;19.20;;;12.80;;
44452;SDS011;30155;52.164;21.236;2023-02-13T03:42:02;22.30;;;12.00;;
44452;SDS011;30155;52.164;21.236;2023-02-13T03:46:59;19.10;;;11.40;;
44452;SDS011;30155;52.164;21.236;2023-02-13T03:51:57;18.70;;;13.10;;
44452;SDS011;30155;52.164;21.236;2023-02-13T03:56:54;22.50;;;11.70;;
44452;SDS011;30155;52.164;21.236;2023-02-13T04:02:12;21.80;;;12.90;;
44452;SDS011;30155;52.164;21.236;2023-02-13T04:07:12;18.20;;;11.40;;
44452;SDS011;30155;52.164;21.236;2023-02-13T04:12:20;19.30;;;12.80;;
44452;SDS011;30155;52.164;21.236;2023-02-13T04:17:29;21.60;;;12.30;;
44452;SDS011;30155;52.164;21.236;2023-02-13T04:22:25;19.80;;;11.70;;
44452;SDS011;30155;52.164;21.236;2023-02-13T04:27:18;18.70;;;12.20;;
44452;SDS011;30155;52.164;21.236;2023-02-13T04:32:11;21.00;;;12.20;;
44452;SDS011;30155;52.164;21.236;2023-02-13T04:37:05;19.10;;;12.90;;
44452;SDS011;30155;52.164;21.236;2023-02-13T04:41:57;16.70;;;11.50;;
44452;SDS011;30155;52.164;21.236;2023-02-13T04:46:50;18.80;;;12.00;;
44452;SDS011;30155;52.164;21.236;2023-02-13T04:51:43;17.00;;;12.80;;
44452;SDS011;30155;52.164;21.236;2023-02-13T04:56:36;17.00;;;11.70;;
44452;SDS011;30155;52.164;21.236;2023-02-13T05:01:29;17.70;;;10.80;;
44452;SDS011;30155;52.164;21.236;2023-02-13T05:06:22;16.30;;;11.30;;
44452;SDS011;30155;52.164;21.236;2023-02-13T05:11:15;19.30;;;11.90;;
44452;SDS011;30155;52.164;21.236;2023-02-13T05:16:10;16.20;;;11.20;;
44452;SDS011;30155;52.164;21.236;2023-02-13T05:21:03;17.00;;;10.30;;
44452;SDS011;30155;52.164;21.236;2023-02-13T05:26:13;18.70;;;12.40;;
44452;SDS011;30155;52.164;21.236;2023-02-13T05:31:06;15.50;;;11.30;;
44452;SDS011;30155;52.164;21.236;2023-02-13T05:35:59;22.80;;;14.70;;
44452;SDS011;30155;52.164;21.236;2023-02-13T05:40:52;19.70;;;13.20;;
44452;SDS011;30155;52.164;21.236;2023-02-13T05:45:46;21.70;;;12.90;;
44452;SDS011;30155;52.164;21.236;2023-02-13T05:50:39;20.60;;;14.30;;
44452;SDS011;30155;52.164;21.236;2023-02-13T05:55:31;19.30;;;13.30;;
44452;SDS011;30155;52.164;21.236;2023-02-13T06:00:24;19.40;;;13.50;;
44452;SDS011;30155;52.164;21.236;2023-02-13T06:05:20;19.20;;;12.80;;
44452;SDS011;30155;52.164;21.236;2023-02-13T06:10:13;23.40;;;14.30;;
44452;SDS011;30155;52.164;21.236;2023-02-13T06:15:06;18.60;;;12.60;;
44452;SDS011;30155;52.164;21.236;2023-02-13T06:19:59;21.40;;;13.50;;
44452;SDS011;30155;52.164;21.236;2023-02-13T06:24:52;18.50;;;12.30;;
44452;SDS011;30155;52.164;21.236;2023-02-13T06:29:45;18.40;;;11.00;;
44452;SDS011;30155;52.164;21.236;2023-02-13T06:34:38;20.40;;;11.90;;
44452;SDS011;30155;52.164;21.236;2023-02-13T06:39:30;18.90;;;12.90;;
44452;SDS011;30155;52.164;21.236;2023-02-13T06:44:23;19.50;;;12.20;;
44452;SDS011;30155;52.164;21.236;2023-02-13T06:49:16;14.80;;;10.60;;
44452;SDS011;30155;52.164;21.236;2023-02-13T06:54:09;17.80;;;12.70;;
44452;SDS011;30155;52.164;21.236;2023-02-13T06:59:02;17.40;;;12.00;;
44452;SDS011;30155;52.164;21.236;2023-02-13T07:03:54;17.30;;;11.00;;
44452;SDS011;30155;52.164;21.236;2023-02-13T07:08:49;14.60;;;9.90;;
44452;SDS011;30155;52.164;21.236;2023-02-13T07:13:45;18.40;;;11.40;;
44452;SDS011;30155;52.164;21.236;2023-02-13T07:18:38;17.20;;;11.50;;
44452;SDS011;30155;52.164;21.236;2023-02-13T07:23:31;17.60;;;9.60;;
44452;SDS011;30155;52.164;21.236;2023-02-13T07:28:26;19.30;;;12.30;;
44452;SDS011;30155;52.164;21.236;2023-02-13T07:33:20;17.60;;;11.00;;
44452;SDS011;30155;52.164;21.236;2023-02-13T07:38:13;17.30;;;10.40;;
44452;SDS011;30155;52.164;21.236;2023-02-13T07:43:09;15.70;;;10.60;;
44452;SDS011;30155;52.164;21.236;2023-02-13T07:48:03;16.60;;;10.40;;
44452;SDS011;30155;52.164;21.236;2023-02-13T07:52:57;12.70;;;9.40;;
44452;SDS011;30155;52.164;21.236;2023-02-13T07:57:51;16.00;;;9.90;;
44452;SDS011;30155;52.164;21.236;2023-02-13T08:02:45;10.50;;;7.70;;
44452;SDS011;30155;52.164;21.236;2023-02-13T08:07:39;10.80;;;7.00;;
44452;SDS011;30155;52.164;21.236;2023-02-13T08:12:32;13.70;;;7.20;;
44452;SDS011;30155;52.164;21.236;2023-02-13T08:17:27;7.90;;;5.90;;
44452;SDS011;30155;52.164;21.236;2023-02-13T08:22:20;12.90;;;7.10;;
44452;SDS011;30155;52.164;21.236;2023-02-13T08:27:13;9.30;;;5.40;;
44452;SDS011;30155;52.164;21.236;2023-02-13T08:32:06;8.30;;;6.40;;
44452;SDS011;30155;52.164;21.236;2023-02-13T08:37:00;8.00;;;5.40;;
44452;SDS011;30155;52.164;21.236;2023-02-13T08:41:54;7.20;;;4.50;;
44452;SDS011;30155;52.164;21.236;2023-02-13T08:46:47;9.60;;;5.30;;
44452;SDS011;30155;52.164;21.236;2023-02-13T08:51:40;7.80;;;4.70;;
44452;SDS011;30155;52.164;21.236;2023-02-13T08:56:32;8.50;;;5.00;;
44452;SDS011;30155;52.164;21.236;2023-02-13T09:01:25;6.00;;;4.70;;
44452;SDS011;30155;52.164;21.236;2023-02-13T09:06:18;6.10;;;4.40;;
44452;SDS011;30155;52.164;21.236;2023-02-13T09:11:12;5.00;;;4.20;;
44452;SDS011;30155;52.164;21.236;2023-02-13T09:16:05;5.10;;;3.70;;
44452;SDS011;30155;52.164;21.236;2023-02-13T09:21:03;4.80;;;4.00;;
44452;SDS011;30155;52.164;21.236;2023-02-13T09:26:01;5.70;;;3.60;;
44452;SDS011;30155;52.164;21.236;2023-02-13T09:30:55;6.00;;;3.60;;
44452;SDS011;30155;52.164;21.236;2023-02-13T09:35:48;5.70;;;3.30;;
44452;SDS011;30155;52.164;21.236;2023-02-13T09:45:37;5.90;;;4.00;;
44452;SDS011;30155;52.164;21.236;2023-02-13T09:50:31;4.50;;;3.60;;
44452;SDS011;30155;52.164;21.236;2023-02-13T09:55:36;4.60;;;3.90;;
44452;SDS011;30155;52.164;21.236;2023-02-13T10:00:47;6.70;;;4.80;;
44452;SDS011;30155;52.164;21.236;2023-02-13T10:06:19;6.50;;;4.40;;
44452;SDS011;30155;52.164;21.236;2023-02-13T10:11:29;4.60;;;3.90;;
44452;SDS011;30155;52.164;21.236;2023-02-13T10:21:29;6.50;;;3.90;;
44452;SDS011;30155;52.164;21.236;2023-02-13T10:26:32;6.60;;;3.50;;
44452;SDS011;30155;52.164;21.236;2023-02-13T10:31:37;6.30;;;4.00;;
44452;SDS011;30155;52.164;21.236;2023-02-13T10:36:34;5.50;;;3.60;;
44452;SDS011;30155;52.164;21.236;2023-02-13T10:51:54;8.30;;;4.10;;
44452;SDS011;30155;52.164;21.236;2023-02-13T11:06:59;6.30;;;4.60;;
44452;SDS011;30155;52.164;21.236;2023-02-13T11:11:56;7.70;;;4.90;;
44452;SDS011;30155;52.164;21.236;2023-02-13T11:16:56;6.60;;;4.50;;
44452;SDS011;30155;52.164;21.236;2023-02-13T11:22:04;8.50;;;4.90;;
44452;SDS011;30155;52.164;21.236;2023-02-13T11:27:05;8.20;;;4.80;;
44452;SDS011;30155;52.164;21.236;2023-02-13T11:42:11;7.90;;;5.70;;
44452;SDS011;30155;52.164;21.236;2023-02-13T11:47:05;9.20;;;5.20;;
44452;SDS011;30155;52.164;21.236;2023-02-13T11:51:59;8.30;;;5.60;;
44452;SDS011;30155;52.164;21.236;2023-02-13T11:57:01;6.40;;;5.60;;
44452;SDS011;30155;52.164;21.236;2023-02-13T12:02:14;7.60;;;5.10;;
44452;SDS011;30155;52.164;21.236;2023-02-13T12:07:21;8.40;;;5.90;;
44452;SDS011;30155;52.164;21.236;2023-02-13T12:12:24;8.10;;;5.80;;
44452;SDS011;30155;52.164;21.236;2023-02-13T12:17:26;8.20;;;5.70;;
44452;SDS011;30155;52.164;21.236;2023-02-13T12:32:44;10.20;;;6.20;;
44452;SDS011;30155;52.164;21.236;2023-02-13T12:37:51;7.30;;;5.70;;
44452;SDS011;30155;52.164;21.236;2023-02-13T12:43:03;9.00;;;6.30;;
44452;SDS011;30155;52.164;21.236;2023-02-13T13:14:00;10.60;;;6.30;;
44452;SDS011;30155;52.164;21.236;2023-02-13T13:29:06;9.00;;;6.50;;
44452;SDS011;30155;52.164;21.236;2023-02-13T13:34:11;8.30;;;6.00;;
44452;SDS011;30155;52.164;21.236;2023-02-13T13:44:51;11.30;;;6.10;;
44452;SDS011;30155;52.164;21.236;2023-02-13T13:54:46;9.80;;;6.10;;
44452;SDS011;30155;52.164;21.236;2023-02-13T14:10:57;11.30;;;7.60;;
44452;SDS011;30155;52.164;21.236;2023-02-13T14:20:36;7.50;;;5.80;;
44452;SDS011;30155;52.164;21.236;2023-02-13T14:25:30;11.70;;;7.10;;
44452;SDS011;30155;52.164;21.236;2023-02-13T14:30:28;9.00;;;6.50;;
44452;SDS011;30155;52.164;21.236;2023-02-13T14:35:31;8.30;;;6.20;;
44452;SDS011;30155;52.164;21.236;2023-02-13T14:45:26;8.90;;;7.10;;
44452;SDS011;30155;52.164;21.236;2023-02-13T14:50:28;11.30;;;7.20;;
44452;SDS011;30155;52.164;21.236;2023-02-13T14:55:33;8.40;;;6.40;;
44452;SDS011;30155;52.164;21.236;2023-02-13T15:00:33;9.00;;;6.80;;
44452;SDS011;30155;52.164;21.236;2023-02-13T15:05:35;9.60;;;6.60;;
44452;SDS011;30155;52.164;21.236;2023-02-13T15:15:27;10.70;;;6.90;;
44452;SDS011;30155;52.164;21.236;2023-02-13T15:20:23;10.00;;;5.90;;
44452;SDS011;30155;52.164;21.236;2023-02-13T15:30:29;8.80;;;6.50;;
44452;SDS011;30155;52.164;21.236;2023-02-13T15:35:31;8.30;;;6.30;;
44452;SDS011;30155;52.164;21.236;2023-02-13T15:40:30;8.10;;;5.80;;
44452;SDS011;30155;52.164;21.236;2023-02-13T15:45:27;9.50;;;6.30;;
44452;SDS011;30155;52.164;21.236;2023-02-13T15:55:27;9.20;;;5.80;;
44452;SDS011;30155;52.164;21.236;2023-02-13T16:05:17;9.10;;;5.90;;
44452;SDS011;30155;52.164;21.236;2023-02-13T16:10:33;7.00;;;5.80;;
44452;SDS011;30155;52.164;21.236;2023-02-13T16:15:28;12.40;;;6.50;;
44452;SDS011;30155;52.164;21.236;2023-02-13T16:20:24;11.30;;;6.00;;
44452;SDS011;30155;52.164;21.236;2023-02-13T16:30:31;9.00;;;5.40;;
44452;SDS011;30155;52.164;21.236;2023-02-13T16:35:31;9.70;;;6.00;;
44452;SDS011;30155;52.164;21.236;2023-02-13T16:45:22;10.20;;;6.10;;
44452;SDS011;30155;52.164;21.236;2023-02-13T16:50:15;11.20;;;6.10;;
44452;SDS011;30155;52.164;21.236;2023-02-13T16:55:13;8.40;;;6.00;;
44452;SDS011;30155;52.164;21.236;2023-02-13T17:00:20;8.10;;;6.10;;
44452;SDS011;30155;52.164;21.236;2023-02-13T17:05:19;11.20;;;6.10;;
44452;SDS011;30155;52.164;21.236;2023-02-13T17:10:35;12.80;;;6.70;;
44452;SDS011;30155;52.164;21.236;2023-02-13T17:15:30;12.10;;;5.90;;
44452;SDS011;30155;52.164;21.236;2023-02-13T17:20:25;9.20;;;6.20;;
44452;SDS011;30155;52.164;21.236;2023-02-13T17:25:23;9.90;;;5.50;;
44452;SDS011;30155;52.164;21.236;2023-02-13T17:30:19;10.90;;;6.10;;
44452;SDS011;30155;52.164;21.236;2023-02-13T17:35:30;8.80;;;4.60;;
44452;SDS011;30155;52.164;21.236;2023-02-13T17:40:24;6.30;;;4.60;;
44452;SDS011;30155;52.164;21.236;2023-02-13T17:45:20;12.50;;;5.10;;
44452;SDS011;30155;52.164;21.236;2023-02-13T17:50:16;9.70;;;4.20;;
44452;SDS011;30155;52.164;21.236;2023-02-13T17:55:13;8.40;;;4.20;;
44452;SDS011;30155;52.164;21.236;2023-02-13T18:00:15;8.90;;;4.30;;
44452;SDS011;30155;52.164;21.236;2023-02-13T18:05:10;7.50;;;4.10;;
44452;SDS011;30155;52.164;21.236;2023-02-13T18:10:04;7.00;;;4.30;;
44452;SDS011;30155;52.164;21.236;2023-02-13T18:15:03;9.00;;;5.10;;
44452;SDS011;30155;52.164;21.236;2023-02-13T18:19:56;7.50;;;4.60;;
44452;SDS011;30155;52.164;21.236;2023-02-13T18:24:50;6.90;;;4.20;;
44452;SDS011;30155;52.164;21.236;2023-02-13T18:29:42;5.40;;;3.70;;
44452;SDS011;30155;52.164;21.236;2023-02-13T18:34:36;10.70;;;4.80;;
44452;SDS011;30155;52.164;21.236;2023-02-13T18:39:30;6.10;;;4.50;;
44452;SDS011;30155;52.164;21.236;2023-02-13T18:44:23;6.60;;;3.80;;
44452;SDS011;30155;52.164;21.236;2023-02-13T18:49:19;8.90;;;4.20;;
44452;SDS011;30155;52.164;21.236;2023-02-13T18:54:11;5.20;;;3.50;;
44452;SDS011;30155;52.164;21.236;2023-02-13T18:59:04;5.70;;;3.80;;
44452;SDS011;30155;52.164;21.236;2023-02-13T19:03:57;8.40;;;4.70;;
44452;SDS011;30155;52.164;21.236;2023-02-13T19:08:50;5.70;;;3.90;;
44452;SDS011;30155;52.164;21.236;2023-02-13T19:13:44;6.40;;;3.90;;
44452;SDS011;30155;52.164;21.236;2023-02-13T19:18:38;8.50;;;4.90;;
44452;SDS011;30155;52.164;21.236;2023-02-13T19:23:31;9.90;;;3.90;;
44452;SDS011;30155;52.164;21.236;2023-02-13T19:28:24;8.80;;;4.50;;
44452;SDS011;30155;52.164;21.236;2023-02-13T19:33:18;9.00;;;4.90;;
44452;SDS011;30155;52.164;21.236;2023-02-13T19:38:11;11.50;;;5.00;;
44452;SDS011;30155;52.164;21.236;2023-02-13T19:43:07;7.20;;;5.40;;
44452;SDS011;30155;52.164;21.236;2023-02-13T19:47:59;7.60;;;5.00;;
44452;SDS011;30155;52.164;21.236;2023-02-13T19:52:52;8.30;;;4.20;;
44452;SDS011;30155;52.164;21.236;2023-02-13T19:57:47;8.50;;;5.80;;
44452;SDS011;30155;52.164;21.236;2023-02-13T20:02:41;7.40;;;5.20;;
44452;SDS011;30155;52.164;21.236;2023-02-13T20:07:34;8.60;;;5.30;;
44452;SDS011;30155;52.164;21.236;2023-02-13T20:12:26;6.50;;;4.40;;
44452;SDS011;30155;52.164;21.236;2023-02-13T20:17:19;10.00;;;4.60;;
44452;SDS011;30155;52.164;21.236;2023-02-13T20:22:14;7.70;;;4.80;;
44452;SDS011;30155;52.164;21.236;2023-02-13T20:27:07;9.10;;;4.80;;
44452;SDS011;30155;52.164;21.236;2023-02-13T20:32:01;9.00;;;5.80;;
44452;SDS011;30155;52.164;21.236;2023-02-13T20:36:55;8.80;;;5.50;;
44452;SDS011;30155;52.164;21.236;2023-02-13T20:41:48;8.80;;;5.00;;
44452;SDS011;30155;52.164;21.236;2023-02-13T20:46:40;6.40;;;4.40;;
44452;SDS011;30155;52.164;21.236;2023-02-13T20:51:33;9.40;;;5.00;;
44452;SDS011;30155;52.164;21.236;2023-02-13T20:56:26;7.50;;;4.40;;
44452;SDS011;30155;52.164;21.236;2023-02-13T21:01:24;7.60;;;4.20;;
44452;SDS011;30155;52.164;21.236;2023-02-13T21:06:24;8.20;;;4.30;;
44452;SDS011;30155;52.164;21.236;2023-02-13T21:11:18;8.50;;;4.40;;
44452;SDS011;30155;52.164;21.236;2023-02-13T21:16:14;6.20;;;4.30;;
44452;SDS011;30155;52.164;21.236;2023-02-13T21:21:09;6.10;;;4.20;;
44452;SDS011;30155;52.164;21.236;2023-02-13T21:26:09;7.20;;;4.10;;
44452;SDS011;30155;52.164;21.236;2023-02-13T21:31:09;6.30;;;4.00;;
44452;SDS011;30155;52.164;21.236;2023-02-13T21:36:05;12.20;;;5.70;;
44452;SDS011;30155;52.164;21.236;2023-02-13T21:46:04;7.60;;;4.40;;
44452;SDS011;30155;52.164;21.236;2023-02-13T21:51:04;8.90;;;4.30;;
44452;SDS011;30155;52.164;21.236;2023-02-13T21:56:04;7.20;;;4.20;;
44452;SDS011;30155;52.164;21.236;2023-02-13T22:00:59;10.10;;;4.80;;
44452;SDS011;30155;52.164;21.236;2023-02-13T22:05:52;6.90;;;3.90;;
44452;SDS011;30155;52.164;21.236;2023-02-13T22:10:55;9.00;;;4.50;;
44452;SDS011;30155;52.164;21.236;2023-02-13T22:20:57;8.20;;;4.50;;
44452;SDS011;30155;52.164;21.236;2023-02-13T22:25:54;8.50;;;4.40;;
44452;SDS011;30155;52.164;21.236;2023-02-13T22:30:49;8.90;;;4.90;;
44452;SDS011;30155;52.164;21.236;2023-02-13T22:35:42;7.10;;;3.60;;
44452;SDS011;30155;52.164;21.236;2023-02-13T22:40:36;10.30;;;3.80;;
44452;SDS011;30155;52.164;21.236;2023-02-13T22:45:29;10.90;;;4.10;;
44452;SDS011;30155;52.164;21.236;2023-02-13T22:50:22;9.30;;;4.20;;
44452;SDS011;30155;52.164;21.236;2023-02-13T22:55:15;6.50;;;3.70;;
44452;SDS011;30155;52.164;21.236;2023-02-13T23:00:08;7.50;;;3.40;;
44452;SDS011;30155;52.164;21.236;2023-02-13T23:05:02;5.30;;;3.40;;
44452;SDS011;30155;52.164;21.236;2023-02-13T23:09:55;10.10;;;4.70;;
44452;SDS011;30155;52.164;21.236;2023-02-13T23:14:48;6.40;;;3.90;;
44452;SDS011;30155;52.164;21.236;2023-02-13T23:19:41;6.30;;;3.70;;
44452;SDS011;30155;52.164;21.236;2023-02-13T23:24:34;6.80;;;3.70;;
44452;SDS011;30155;52.164;21.236;2023-02-13T23:29:27;5.60;;;3.40;;
44452;SDS011;30155;52.164;21.236;2023-02-13T23:34:19;7.50;;;4.20;;
44452;SDS011;30155;52.164;21.236;2023-02-13T23:39:13;5.00;;;3.40;;
44452;SDS011;30155;52.164;21.236;2023-02-13T23:44:06;6.00;;;3.60;;
44452;SDS011;30155;52.164;21.236;2023-02-13T23:48:59;12.00;;;6.00;;
44452;SDS011;30155;52.164;21.236;2023-02-13T23:53:52;9.80;;;3.90;;
44452;SDS011;30155;52.164;21.236;2023-02-13T23:58:47;6.70;;;4.50;;
